sensor_id;sensor_type;location;lat;lon;timestamp;P1;durP1;ratioP1;P2;durP2;ratioP2
57327;SDS011;43162;51.040;18.244;2022-09-21T00:00:22;5.80;;;3.00;;
57327;SDS011;43162;51.040;18.244;2022-09-21T00:02:49;5.60;;;2.80;;
57327;SDS011;43162;51.040;18.244;2022-09-21T00:05:16;5.40;;;3.10;;
57327;SDS011;43162;51.040;18.244;2022-09-21T00:07:42;6.50;;;3.20;;
57327;SDS011;43162;51.040;18.244;2022-09-21T00:10:08;6.60;;;3.30;;
57327;SDS011;43162;51.040;18.244;2022-09-21T00:12:34;11.00;;;3.60;;
57327;SDS011;43162;51.040;18.244;2022-09-21T00:15:06;7.10;;;3.30;;
57327;SDS011;43162;51.040;18.244;2022-09-21T00:17:33;8.00;;;3.30;;
57327;SDS011;43162;51.040;18.244;2022-09-21T00:19:59;6.00;;;3.20;;
57327;SDS011;43162;51.040;18.244;2022-09-21T00:22:26;7.40;;;3.50;;
57327;SDS011;43162;51.040;18.244;2022-09-21T00:24:53;8.40;;;3.50;;
57327;SDS011;43162;51.040;18.244;2022-09-21T00:27:18;7.10;;;3.90;;
57327;SDS011;43162;51.040;18.244;2022-09-21T00:29:44;5.40;;;3.30;;
57327;SDS011;43162;51.040;18.244;2022-09-21T00:32:10;6.00;;;3.60;;
57327;SDS011;43162;51.040;18.244;2022-09-21T00:34:35;6.60;;;4.00;;
57327;SDS011;43162;51.040;18.244;2022-09-21T00:37:01;6.50;;;3.80;;
57327;SDS011;43162;51.040;18.244;2022-09-21T00:39:27;7.60;;;3.40;;
57327;SDS011;43162;51.040;18.244;2022-09-21T00:41:53;7.20;;;3.70;;
57327;SDS011;43162;51.040;18.244;2022-09-21T00:44:29;8.00;;;3.60;;
57327;SDS011;43162;51.040;18.244;2022-09-21T00:46:57;8.30;;;3.70;;
57327;SDS011;43162;51.040;18.244;2022-09-21T00:49:29;6.60;;;3.80;;
57327;SDS011;43162;51.040;18.244;2022-09-21T00:51:55;7.30;;;3.80;;
57327;SDS011;43162;51.040;18.244;2022-09-21T00:54:27;6.40;;;4.00;;
57327;SDS011;43162;51.040;18.244;2022-09-21T00:59:28;5.30;;;3.60;;
57327;SDS011;43162;51.040;18.244;2022-09-21T01:01:55;6.90;;;3.70;;
57327;SDS011;43162;51.040;18.244;2022-09-21T01:04:22;6.50;;;4.10;;
57327;SDS011;43162;51.040;18.244;2022-09-21T01:06:48;6.00;;;4.00;;
57327;SDS011;43162;51.040;18.244;2022-09-21T01:09:14;9.70;;;4.00;;
57327;SDS011;43162;51.040;18.244;2022-09-21T01:31:06;9.00;;;4.20;;
57327;SDS011;43162;51.040;18.244;2022-09-21T01:33:38;8.30;;;4.70;;
57327;SDS011;43162;51.040;18.244;2022-09-21T01:36:14;7.10;;;4.60;;
57327;SDS011;43162;51.040;18.244;2022-09-21T01:38:44;6.60;;;4.50;;
57327;SDS011;43162;51.040;18.244;2022-09-21T01:41:14;8.30;;;5.10;;
57327;SDS011;43162;51.040;18.244;2022-09-21T01:43:46;8.50;;;4.90;;
57327;SDS011;43162;51.040;18.244;2022-09-21T01:46:16;6.80;;;4.40;;
57327;SDS011;43162;51.040;18.244;2022-09-21T01:48:45;7.40;;;5.20;;
57327;SDS011;43162;51.040;18.244;2022-09-21T01:51:14;7.10;;;4.60;;
57327;SDS011;43162;51.040;18.244;2022-09-21T01:56:35;8.20;;;4.80;;
57327;SDS011;43162;51.040;18.244;2022-09-21T01:59:25;8.50;;;4.80;;
57327;SDS011;43162;51.040;18.244;2022-09-21T02:01:52;9.40;;;5.80;;
57327;SDS011;43162;51.040;18.244;2022-09-21T02:04:20;6.80;;;4.70;;
57327;SDS011;43162;51.040;18.244;2022-09-21T02:06:46;7.00;;;4.70;;
57327;SDS011;43162;51.040;18.244;2022-09-21T02:09:13;7.00;;;4.60;;
57327;SDS011;43162;51.040;18.244;2022-09-21T02:11:38;8.10;;;5.00;;
57327;SDS011;43162;51.040;18.244;2022-09-21T02:14:08;8.20;;;5.20;;
57327;SDS011;43162;51.040;18.244;2022-09-21T02:16:46;7.70;;;4.60;;
57327;SDS011;43162;51.040;18.244;2022-09-21T02:19:44;7.30;;;4.90;;
57327;SDS011;43162;51.040;18.244;2022-09-21T02:22:23;8.80;;;4.60;;
57327;SDS011;43162;51.040;18.244;2022-09-21T02:25:09;7.20;;;4.10;;
57327;SDS011;43162;51.040;18.244;2022-09-21T02:30:21;7.90;;;4.40;;
57327;SDS011;43162;51.040;18.244;2022-09-21T02:35:34;8.10;;;4.50;;
57327;SDS011;43162;51.040;18.244;2022-09-21T02:41:27;8.20;;;4.40;;
57327;SDS011;43162;51.040;18.244;2022-09-21T02:44:02;6.10;;;4.60;;
57327;SDS011;43162;51.040;18.244;2022-09-21T02:46:45;6.20;;;4.20;;
57327;SDS011;43162;51.040;18.244;2022-09-21T02:49:21;8.80;;;5.10;;
57327;SDS011;43162;51.040;18.244;2022-09-21T02:51:51;8.60;;;4.70;;
57327;SDS011;43162;51.040;18.244;2022-09-21T02:54:21;8.00;;;4.80;;
57327;SDS011;43162;51.040;18.244;2022-09-21T02:56:54;8.10;;;4.90;;
57327;SDS011;43162;51.040;18.244;2022-09-21T02:59:19;6.60;;;4.80;;
57327;SDS011;43162;51.040;18.244;2022-09-21T03:01:49;8.10;;;5.30;;
57327;SDS011;43162;51.040;18.244;2022-09-21T03:04:17;11.20;;;6.60;;
57327;SDS011;43162;51.040;18.244;2022-09-21T03:06:42;9.10;;;6.20;;
57327;SDS011;43162;51.040;18.244;2022-09-21T03:09:08;11.70;;;7.30;;
57327;SDS011;43162;51.040;18.244;2022-09-21T03:11:34;10.80;;;7.20;;
57327;SDS011;43162;51.040;18.244;2022-09-21T03:14:03;11.70;;;8.50;;
57327;SDS011;43162;51.040;18.244;2022-09-21T03:16:35;12.10;;;9.60;;
57327;SDS011;43162;51.040;18.244;2022-09-21T03:19:02;14.30;;;10.40;;
57327;SDS011;43162;51.040;18.244;2022-09-21T03:21:29;15.10;;;10.60;;
57327;SDS011;43162;51.040;18.244;2022-09-21T03:23:55;13.00;;;10.10;;
57327;SDS011;43162;51.040;18.244;2022-09-21T03:26:20;14.50;;;10.90;;
57327;SDS011;43162;51.040;18.244;2022-09-21T03:28:47;15.30;;;10.50;;
57327;SDS011;43162;51.040;18.244;2022-09-21T03:31:19;19.40;;;12.20;;
57327;SDS011;43162;51.040;18.244;2022-09-21T03:33:44;15.90;;;12.40;;
57327;SDS011;43162;51.040;18.244;2022-09-21T03:36:10;15.30;;;11.90;;
57327;SDS011;43162;51.040;18.244;2022-09-21T03:38:36;14.20;;;11.90;;
57327;SDS011;43162;51.040;18.244;2022-09-21T03:41:03;14.70;;;11.40;;
57327;SDS011;43162;51.040;18.244;2022-09-21T03:43:29;15.90;;;12.10;;
57327;SDS011;43162;51.040;18.244;2022-09-21T03:45:54;15.50;;;12.10;;
57327;SDS011;43162;51.040;18.244;2022-09-21T03:48:20;16.40;;;12.00;;
57327;SDS011;43162;51.040;18.244;2022-09-21T03:50:46;16.70;;;13.00;;
57327;SDS011;43162;51.040;18.244;2022-09-21T03:53:12;17.00;;;13.10;;
57327;SDS011;43162;51.040;18.244;2022-09-21T03:55:39;17.00;;;13.60;;
57327;SDS011;43162;51.040;18.244;2022-09-21T03:58:05;17.50;;;14.10;;
57327;SDS011;43162;51.040;18.244;2022-09-21T04:00:31;23.20;;;13.40;;
57327;SDS011;43162;51.040;18.244;2022-09-21T04:02:57;18.20;;;14.40;;
57327;SDS011;43162;51.040;18.244;2022-09-21T04:05:23;24.70;;;13.80;;
57327;SDS011;43162;51.040;18.244;2022-09-21T04:07:49;23.10;;;14.10;;
57327;SDS011;43162;51.040;18.244;2022-09-21T04:10:16;19.60;;;14.30;;
57327;SDS011;43162;51.040;18.244;2022-09-21T04:12:44;19.00;;;14.10;;
57327;SDS011;43162;51.040;18.244;2022-09-21T04:15:11;23.80;;;13.60;;
57327;SDS011;43162;51.040;18.244;2022-09-21T04:17:43;20.40;;;14.60;;
57327;SDS011;43162;51.040;18.244;2022-09-21T04:20:08;24.20;;;15.30;;
57327;SDS011;43162;51.040;18.244;2022-09-21T04:22:34;20.20;;;15.30;;
57327;SDS011;43162;51.040;18.244;2022-09-21T04:25:01;24.60;;;14.50;;
57327;SDS011;43162;51.040;18.244;2022-09-21T04:27:30;19.80;;;14.70;;
57327;SDS011;43162;51.040;18.244;2022-09-21T04:30:01;19.10;;;14.80;;
57327;SDS011;43162;51.040;18.244;2022-09-21T04:32:27;24.80;;;14.50;;
57327;SDS011;43162;51.040;18.244;2022-09-21T04:34:54;27.20;;;15.50;;
57327;SDS011;43162;51.040;18.244;2022-09-21T04:37:20;24.80;;;15.20;;
57327;SDS011;43162;51.040;18.244;2022-09-21T04:39:47;21.80;;;15.50;;
57327;SDS011;43162;51.040;18.244;2022-09-21T04:42:15;30.00;;;16.10;;
57327;SDS011;43162;51.040;18.244;2022-09-21T04:44:40;23.40;;;16.20;;
57327;SDS011;43162;51.040;18.244;2022-09-21T04:47:06;23.90;;;16.70;;
57327;SDS011;43162;51.040;18.244;2022-09-21T04:49:31;23.40;;;16.20;;
57327;SDS011;43162;51.040;18.244;2022-09-21T04:51:57;22.50;;;16.00;;
57327;SDS011;43162;51.040;18.244;2022-09-21T04:54:23;20.20;;;15.70;;
57327;SDS011;43162;51.040;18.244;2022-09-21T04:56:49;20.90;;;16.00;;
57327;SDS011;43162;51.040;18.244;2022-09-21T04:59:14;22.50;;;16.20;;
57327;SDS011;43162;51.040;18.244;2022-09-21T05:01:40;18.90;;;15.20;;
57327;SDS011;43162;51.040;18.244;2022-09-21T05:04:05;19.20;;;15.40;;
57327;SDS011;43162;51.040;18.244;2022-09-21T05:06:32;19.60;;;15.80;;
57327;SDS011;43162;51.040;18.244;2022-09-21T05:08:59;18.80;;;16.10;;
57327;SDS011;43162;51.040;18.244;2022-09-21T05:11:44;20.00;;;16.70;;
57327;SDS011;43162;51.040;18.244;2022-09-21T05:14:10;18.90;;;16.00;;
57327;SDS011;43162;51.040;18.244;2022-09-21T05:16:36;19.20;;;16.30;;
57327;SDS011;43162;51.040;18.244;2022-09-21T05:19:02;17.20;;;15.10;;
57327;SDS011;43162;51.040;18.244;2022-09-21T05:21:28;19.00;;;14.50;;
57327;SDS011;43162;51.040;18.244;2022-09-21T05:24:04;19.10;;;16.80;;
57327;SDS011;43162;51.040;18.244;2022-09-21T05:26:30;16.90;;;15.00;;
57327;SDS011;43162;51.040;18.244;2022-09-21T05:28:56;17.90;;;15.50;;
57327;SDS011;43162;51.040;18.244;2022-09-21T05:34:10;16.10;;;14.00;;
57327;SDS011;43162;51.040;18.244;2022-09-21T05:39:45;16.50;;;14.10;;
57327;SDS011;43162;51.040;18.244;2022-09-21T05:42:11;16.90;;;13.80;;
57327;SDS011;43162;51.040;18.244;2022-09-21T05:44:37;16.40;;;13.90;;
57327;SDS011;43162;51.040;18.244;2022-09-21T05:47:15;14.70;;;12.30;;
57327;SDS011;43162;51.040;18.244;2022-09-21T05:52:27;12.70;;;11.30;;
57327;SDS011;43162;51.040;18.244;2022-09-21T06:01:10;12.20;;;10.80;;
57327;SDS011;43162;51.040;18.244;2022-09-21T06:04:18;13.70;;;10.30;;
57327;SDS011;43162;51.040;18.244;2022-09-21T06:06:44;13.10;;;10.90;;
57327;SDS011;43162;51.040;18.244;2022-09-21T06:09:09;11.30;;;10.00;;
57327;SDS011;43162;51.040;18.244;2022-09-21T06:11:35;13.00;;;10.90;;
57327;SDS011;43162;51.040;18.244;2022-09-21T06:14:01;12.50;;;10.40;;
57327;SDS011;43162;51.040;18.244;2022-09-21T06:16:35;12.00;;;10.80;;
57327;SDS011;43162;51.040;18.244;2022-09-21T06:19:04;12.60;;;11.00;;
57327;SDS011;43162;51.040;18.244;2022-09-21T06:21:30;13.00;;;10.80;;
57327;SDS011;43162;51.040;18.244;2022-09-21T06:23:55;16.20;;;11.90;;
57327;SDS011;43162;51.040;18.244;2022-09-21T06:26:21;14.50;;;11.60;;
57327;SDS011;43162;51.040;18.244;2022-09-21T06:28:47;12.00;;;10.20;;
57327;SDS011;43162;51.040;18.244;2022-09-21T06:31:13;13.90;;;10.90;;
57327;SDS011;43162;51.040;18.244;2022-09-21T06:37:04;12.70;;;10.40;;
57327;SDS011;43162;51.040;18.244;2022-09-21T06:39:32;13.10;;;10.60;;
57327;SDS011;43162;51.040;18.244;2022-09-21T06:41:58;11.30;;;9.70;;
57327;SDS011;43162;51.040;18.244;2022-09-21T06:44:25;12.30;;;9.40;;
57327;SDS011;43162;51.040;18.244;2022-09-21T06:46:51;11.10;;;9.50;;
57327;SDS011;43162;51.040;18.244;2022-09-21T06:49:17;10.80;;;8.90;;
57327;SDS011;43162;51.040;18.244;2022-09-21T06:51:42;14.00;;;9.00;;
57327;SDS011;43162;51.040;18.244;2022-09-21T06:54:08;11.50;;;8.80;;
57327;SDS011;43162;51.040;18.244;2022-09-21T06:56:34;10.70;;;9.40;;
57327;SDS011;43162;51.040;18.244;2022-09-21T06:59:01;10.80;;;8.40;;
57327;SDS011;43162;51.040;18.244;2022-09-21T07:01:28;10.20;;;7.90;;
57327;SDS011;43162;51.040;18.244;2022-09-21T07:03:54;11.30;;;9.00;;
57327;SDS011;43162;51.040;18.244;2022-09-21T07:06:19;10.20;;;8.60;;
57327;SDS011;43162;51.040;18.244;2022-09-21T07:08:46;12.10;;;9.50;;
57327;SDS011;43162;51.040;18.244;2022-09-21T07:11:12;9.60;;;8.10;;
57327;SDS011;43162;51.040;18.244;2022-09-21T07:13:39;11.90;;;8.50;;
57327;SDS011;43162;51.040;18.244;2022-09-21T07:16:06;11.90;;;8.50;;
57327;SDS011;43162;51.040;18.244;2022-09-21T07:18:33;10.40;;;7.80;;
57327;SDS011;43162;51.040;18.244;2022-09-21T07:21:07;9.10;;;7.20;;
57327;SDS011;43162;51.040;18.244;2022-09-21T07:23:34;9.90;;;7.30;;
57327;SDS011;43162;51.040;18.244;2022-09-21T07:26:03;9.40;;;7.40;;
57327;SDS011;43162;51.040;18.244;2022-09-21T07:28:31;8.30;;;7.00;;
57327;SDS011;43162;51.040;18.244;2022-09-21T07:30:58;9.10;;;7.40;;
57327;SDS011;43162;51.040;18.244;2022-09-21T07:33:24;10.70;;;7.20;;
57327;SDS011;43162;51.040;18.244;2022-09-21T07:35:51;8.80;;;6.80;;
57327;SDS011;43162;51.040;18.244;2022-09-21T07:38:18;8.70;;;6.10;;
57327;SDS011;43162;51.040;18.244;2022-09-21T07:40:44;9.30;;;6.70;;
57327;SDS011;43162;51.040;18.244;2022-09-21T07:43:10;8.10;;;6.30;;
57327;SDS011;43162;51.040;18.244;2022-09-21T07:45:35;7.50;;;6.10;;
57327;SDS011;43162;51.040;18.244;2022-09-21T07:48:02;7.00;;;5.30;;
57327;SDS011;43162;51.040;18.244;2022-09-21T07:50:28;7.00;;;5.10;;
57327;SDS011;43162;51.040;18.244;2022-09-21T07:52:54;7.00;;;4.90;;
57327;SDS011;43162;51.040;18.244;2022-09-21T07:55:20;7.00;;;4.90;;
57327;SDS011;43162;51.040;18.244;2022-09-21T07:57:48;6.70;;;4.90;;
57327;SDS011;43162;51.040;18.244;2022-09-21T08:00:32;6.60;;;4.70;;
57327;SDS011;43162;51.040;18.244;2022-09-21T08:02:59;7.50;;;5.40;;
57327;SDS011;43162;51.040;18.244;2022-09-21T08:05:25;7.10;;;5.20;;
57327;SDS011;43162;51.040;18.244;2022-09-21T08:07:55;7.50;;;5.50;;
57327;SDS011;43162;51.040;18.244;2022-09-21T08:10:22;6.60;;;5.20;;
57327;SDS011;43162;51.040;18.244;2022-09-21T08:12:49;8.50;;;5.60;;
57327;SDS011;43162;51.040;18.244;2022-09-21T08:15:14;7.20;;;5.10;;
57327;SDS011;43162;51.040;18.244;2022-09-21T08:17:42;8.90;;;6.30;;
57327;SDS011;43162;51.040;18.244;2022-09-21T08:20:08;6.90;;;5.20;;
57327;SDS011;43162;51.040;18.244;2022-09-21T08:22:34;7.90;;;5.40;;
57327;SDS011;43162;51.040;18.244;2022-09-21T08:25:00;9.00;;;5.60;;
57327;SDS011;43162;51.040;18.244;2022-09-21T08:27:27;7.70;;;5.70;;
57327;SDS011;43162;51.040;18.244;2022-09-21T08:29:53;7.80;;;5.60;;
57327;SDS011;43162;51.040;18.244;2022-09-21T08:32:18;8.30;;;5.50;;
57327;SDS011;43162;51.040;18.244;2022-09-21T08:34:44;9.60;;;5.80;;
57327;SDS011;43162;51.040;18.244;2022-09-21T08:37:10;6.60;;;4.80;;
57327;SDS011;43162;51.040;18.244;2022-09-21T08:39:36;7.60;;;5.10;;
57327;SDS011;43162;51.040;18.244;2022-09-21T08:44:49;6.10;;;4.50;;
57327;SDS011;43162;51.040;18.244;2022-09-21T08:47:27;5.50;;;4.20;;
57327;SDS011;43162;51.040;18.244;2022-09-21T08:50:03;10.30;;;4.80;;
57327;SDS011;43162;51.040;18.244;2022-09-21T08:52:30;6.00;;;4.50;;
57327;SDS011;43162;51.040;18.244;2022-09-21T08:55:15;5.40;;;4.00;;
57327;SDS011;43162;51.040;18.244;2022-09-21T08:57:42;6.80;;;4.40;;
57327;SDS011;43162;51.040;18.244;2022-09-21T09:00:15;5.90;;;4.30;;
57327;SDS011;43162;51.040;18.244;2022-09-21T09:13:53;6.40;;;3.70;;
57327;SDS011;43162;51.040;18.244;2022-09-21T09:16:16;6.80;;;4.20;;
57327;SDS011;43162;51.040;18.244;2022-09-21T09:18:53;5.80;;;3.80;;
57327;SDS011;43162;51.040;18.244;2022-09-21T09:21:33;6.90;;;3.90;;
57327;SDS011;43162;51.040;18.244;2022-09-21T09:24:14;5.80;;;3.80;;
57327;SDS011;43162;51.040;18.244;2022-09-21T09:26:47;6.90;;;3.50;;
57327;SDS011;43162;51.040;18.244;2022-09-21T09:29:53;6.20;;;4.00;;
57327;SDS011;43162;51.040;18.244;2022-09-21T09:32:27;5.20;;;3.10;;
57327;SDS011;43162;51.040;18.244;2022-09-21T09:37:48;6.50;;;3.90;;
57327;SDS011;43162;51.040;18.244;2022-09-21T09:40:15;5.60;;;3.40;;
57327;SDS011;43162;51.040;18.244;2022-09-21T09:42:54;5.70;;;3.80;;
57327;SDS011;43162;51.040;18.244;2022-09-21T09:45:33;4.60;;;3.20;;
57327;SDS011;43162;51.040;18.244;2022-09-21T09:50:35;4.00;;;2.80;;
57327;SDS011;43162;51.040;18.244;2022-09-21T09:53:04;6.20;;;3.20;;
57327;SDS011;43162;51.040;18.244;2022-09-21T09:55:36;5.00;;;3.20;;
57327;SDS011;43162;51.040;18.244;2022-09-21T09:58:03;5.00;;;3.10;;
57327;SDS011;43162;51.040;18.244;2022-09-21T10:00:30;5.10;;;3.00;;
57327;SDS011;43162;51.040;18.244;2022-09-21T10:02:57;5.00;;;2.80;;
57327;SDS011;43162;51.040;18.244;2022-09-21T10:05:24;4.90;;;2.90;;
57327;SDS011;43162;51.040;18.244;2022-09-21T10:07:57;6.00;;;2.90;;
57327;SDS011;43162;51.040;18.244;2022-09-21T10:12:56;7.30;;;2.70;;
57327;SDS011;43162;51.040;18.244;2022-09-21T10:15:28;5.50;;;2.60;;
57327;SDS011;43162;51.040;18.244;2022-09-21T10:18:00;4.70;;;2.30;;
57327;SDS011;43162;51.040;18.244;2022-09-21T10:20:32;5.60;;;2.10;;
57327;SDS011;43162;51.040;18.244;2022-09-21T10:22:57;4.60;;;2.00;;
57327;SDS011;43162;51.040;18.244;2022-09-21T10:25:24;4.50;;;2.90;;
57327;SDS011;43162;51.040;18.244;2022-09-21T10:27:49;4.10;;;2.80;;
57327;SDS011;43162;51.040;18.244;2022-09-21T10:32:54;3.80;;;1.70;;
57327;SDS011;43162;51.040;18.244;2022-09-21T10:35:22;4.40;;;1.80;;
57327;SDS011;43162;51.040;18.244;2022-09-21T10:37:48;5.40;;;1.80;;
57327;SDS011;43162;51.040;18.244;2022-09-21T10:43:03;3.70;;;1.50;;
57327;SDS011;43162;51.040;18.244;2022-09-21T10:45:29;2.20;;;1.50;;
57327;SDS011;43162;51.040;18.244;2022-09-21T10:53:11;3.60;;;1.60;;
57327;SDS011;43162;51.040;18.244;2022-09-21T10:58:23;4.00;;;1.40;;
57327;SDS011;43162;51.040;18.244;2022-09-21T11:00:50;2.90;;;1.30;;
57327;SDS011;43162;51.040;18.244;2022-09-21T11:08:45;3.00;;;1.30;;
57327;SDS011;43162;51.040;18.244;2022-09-21T11:13:45;2.70;;;1.70;;
57327;SDS011;43162;51.040;18.244;2022-09-21T11:16:20;4.00;;;1.20;;
57327;SDS011;43162;51.040;18.244;2022-09-21T11:21:45;2.80;;;1.30;;
57327;SDS011;43162;51.040;18.244;2022-09-21T11:26:56;2.40;;;1.40;;
57327;SDS011;43162;51.040;18.244;2022-09-21T11:40:38;10.00;;;3.20;;
57327;SDS011;43162;51.040;18.244;2022-09-21T11:43:29;7.10;;;3.40;;
57327;SDS011;43162;51.040;18.244;2022-09-21T11:46:41;5.60;;;2.10;;
57327;SDS011;43162;51.040;18.244;2022-09-21T11:49:21;3.00;;;1.70;;
57327;SDS011;43162;51.040;18.244;2022-09-21T11:58:15;7.30;;;3.10;;
57327;SDS011;43162;51.040;18.244;2022-09-21T12:26:12;3.80;;;1.90;;
57327;SDS011;43162;51.040;18.244;2022-09-21T12:31:23;6.30;;;1.90;;
57327;SDS011;43162;51.040;18.244;2022-09-21T12:34:09;3.40;;;1.90;;
57327;SDS011;43162;51.040;18.244;2022-09-21T12:36:43;3.60;;;1.70;;
57327;SDS011;43162;51.040;18.244;2022-09-21T12:39:19;3.10;;;1.10;;
57327;SDS011;43162;51.040;18.244;2022-09-21T12:42:02;2.10;;;1.10;;
57327;SDS011;43162;51.040;18.244;2022-09-21T12:47:21;2.70;;;0.90;;
57327;SDS011;43162;51.040;18.244;2022-09-21T12:50:13;2.80;;;1.40;;
57327;SDS011;43162;51.040;18.244;2022-09-21T12:52:45;3.60;;;1.40;;
57327;SDS011;43162;51.040;18.244;2022-09-21T13:00:36;3.90;;;1.70;;
57327;SDS011;43162;51.040;18.244;2022-09-21T13:03:27;2.60;;;1.30;;
57327;SDS011;43162;51.040;18.244;2022-09-21T13:06:18;2.10;;;1.00;;
57327;SDS011;43162;51.040;18.244;2022-09-21T13:08:57;3.60;;;1.00;;
57327;SDS011;43162;51.040;18.244;2022-09-21T13:11:25;2.20;;;0.90;;
57327;SDS011;43162;51.040;18.244;2022-09-21T13:13:55;3.90;;;1.80;;
57327;SDS011;43162;51.040;18.244;2022-09-21T13:16:25;2.60;;;1.50;;
57327;SDS011;43162;51.040;18.244;2022-09-21T13:18:59;2.70;;;1.00;;
57327;SDS011;43162;51.040;18.244;2022-09-21T13:21:27;3.40;;;1.10;;
57327;SDS011;43162;51.040;18.244;2022-09-21T13:23:58;4.10;;;1.10;;
57327;SDS011;43162;51.040;18.244;2022-09-21T13:26:50;3.60;;;1.40;;
57327;SDS011;43162;51.040;18.244;2022-09-21T13:31:57;1.90;;;0.80;;
57327;SDS011;43162;51.040;18.244;2022-09-21T13:39:44;2.60;;;0.80;;
57327;SDS011;43162;51.040;18.244;2022-09-21T13:44:58;5.80;;;4.00;;
57327;SDS011;43162;51.040;18.244;2022-09-21T13:47:28;1.90;;;0.80;;
57327;SDS011;43162;51.040;18.244;2022-09-21T13:49:56;2.60;;;1.10;;
57327;SDS011;43162;51.040;18.244;2022-09-21T13:52:24;2.20;;;1.20;;
57327;SDS011;43162;51.040;18.244;2022-09-21T13:54:56;1.90;;;0.80;;
57327;SDS011;43162;51.040;18.244;2022-09-21T13:57:36;1.70;;;1.00;;
57327;SDS011;43162;51.040;18.244;2022-09-21T14:06:46;0.80;;;0.50;;
57327;SDS011;43162;51.040;18.244;2022-09-21T14:09:35;1.50;;;0.60;;
57327;SDS011;43162;51.040;18.244;2022-09-21T14:12:23;1.60;;;0.60;;
57327;SDS011;43162;51.040;18.244;2022-09-21T14:15:08;2.50;;;1.00;;
57327;SDS011;43162;51.040;18.244;2022-09-21T14:17:40;1.10;;;0.50;;
57327;SDS011;43162;51.040;18.244;2022-09-21T14:20:29;1.30;;;0.60;;
57327;SDS011;43162;51.040;18.244;2022-09-21T14:25:51;1.60;;;0.70;;
57327;SDS011;43162;51.040;18.244;2022-09-21T14:28:31;1.20;;;0.70;;
57327;SDS011;43162;51.040;18.244;2022-09-21T14:31:05;2.20;;;0.90;;
57327;SDS011;43162;51.040;18.244;2022-09-21T14:33:44;1.30;;;0.50;;
57327;SDS011;43162;51.040;18.244;2022-09-21T14:36:14;1.00;;;0.50;;
57327;SDS011;43162;51.040;18.244;2022-09-21T14:38:51;1.00;;;0.50;;
57327;SDS011;43162;51.040;18.244;2022-09-21T14:41:20;0.70;;;0.40;;
57327;SDS011;43162;51.040;18.244;2022-09-21T14:43:48;0.40;;;0.30;;
57327;SDS011;43162;51.040;18.244;2022-09-21T14:46:25;0.50;;;0.30;;
57327;SDS011;43162;51.040;18.244;2022-09-21T15:02:31;1.10;;;0.70;;
57327;SDS011;43162;51.040;18.244;2022-09-21T15:13:48;1.20;;;0.80;;
57327;SDS011;43162;51.040;18.244;2022-09-21T15:16:38;2.50;;;1.10;;
57327;SDS011;43162;51.040;18.244;2022-09-21T15:19:10;4.00;;;1.40;;
57327;SDS011;43162;51.040;18.244;2022-09-21T15:21:45;2.20;;;1.20;;
57327;SDS011;43162;51.040;18.244;2022-09-21T15:24:21;2.50;;;1.20;;
57327;SDS011;43162;51.040;18.244;2022-09-21T15:27:26;2.90;;;1.30;;
57327;SDS011;43162;51.040;18.244;2022-09-21T15:30:03;3.00;;;1.20;;
57327;SDS011;43162;51.040;18.244;2022-09-21T15:32:47;5.10;;;1.50;;
57327;SDS011;43162;51.040;18.244;2022-09-21T15:35:25;16.60;;;2.40;;
57327;SDS011;43162;51.040;18.244;2022-09-21T15:38:24;2.70;;;1.20;;
57327;SDS011;43162;51.040;18.244;2022-09-21T15:41:17;2.40;;;1.20;;
57327;SDS011;43162;51.040;18.244;2022-09-21T15:44:30;2.60;;;1.00;;
57327;SDS011;43162;51.040;18.244;2022-09-21T15:47:29;2.60;;;1.00;;
57327;SDS011;43162;51.040;18.244;2022-09-21T15:49:56;2.70;;;1.20;;
57327;SDS011;43162;51.040;18.244;2022-09-21T15:52:31;2.90;;;1.00;;
57327;SDS011;43162;51.040;18.244;2022-09-21T15:55:16;2.10;;;1.10;;
57327;SDS011;43162;51.040;18.244;2022-09-21T15:58:03;2.60;;;1.00;;
57327;SDS011;43162;51.040;18.244;2022-09-21T16:00:50;2.20;;;1.20;;
57327;SDS011;43162;51.040;18.244;2022-09-21T16:03:44;2.30;;;1.30;;
57327;SDS011;43162;51.040;18.244;2022-09-21T16:06:20;3.60;;;1.30;;
57327;SDS011;43162;51.040;18.244;2022-09-21T16:08:49;3.70;;;1.50;;
57327;SDS011;43162;51.040;18.244;2022-09-21T16:13:57;5.90;;;2.40;;
57327;SDS011;43162;51.040;18.244;2022-09-21T16:19:40;4.40;;;1.90;;
57327;SDS011;43162;51.040;18.244;2022-09-21T16:22:13;2.80;;;1.80;;
57327;SDS011;43162;51.040;18.244;2022-09-21T16:24:43;4.40;;;2.20;;
57327;SDS011;43162;51.040;18.244;2022-09-21T16:27:14;3.20;;;1.70;;
57327;SDS011;43162;51.040;18.244;2022-09-21T16:29:46;4.10;;;1.80;;
57327;SDS011;43162;51.040;18.244;2022-09-21T16:34:45;2.10;;;1.20;;
57327;SDS011;43162;51.040;18.244;2022-09-21T16:39:50;3.00;;;1.70;;
57327;SDS011;43162;51.040;18.244;2022-09-21T16:42:17;3.40;;;1.50;;
57327;SDS011;43162;51.040;18.244;2022-09-21T16:44:45;3.50;;;1.90;;
57327;SDS011;43162;51.040;18.244;2022-09-21T16:47:18;3.80;;;2.10;;
57327;SDS011;43162;51.040;18.244;2022-09-21T16:49:49;7.40;;;2.90;;
57327;SDS011;43162;51.040;18.244;2022-09-21T16:52:20;3.80;;;2.10;;
57327;SDS011;43162;51.040;18.244;2022-09-21T16:54:46;22.00;;;3.50;;
57327;SDS011;43162;51.040;18.244;2022-09-21T16:57:14;5.90;;;2.50;;
57327;SDS011;43162;51.040;18.244;2022-09-21T16:59:40;6.70;;;2.10;;
57327;SDS011;43162;51.040;18.244;2022-09-21T17:02:06;34.60;;;6.10;;
57327;SDS011;43162;51.040;18.244;2022-09-21T17:04:34;3.70;;;1.60;;
57327;SDS011;43162;51.040;18.244;2022-09-21T17:07:00;5.50;;;1.80;;
57327;SDS011;43162;51.040;18.244;2022-09-21T17:09:30;2.80;;;1.20;;
57327;SDS011;43162;51.040;18.244;2022-09-21T17:12:06;3.70;;;1.20;;
57327;SDS011;43162;51.040;18.244;2022-09-21T17:14:34;3.60;;;1.30;;
57327;SDS011;43162;51.040;18.244;2022-09-21T17:17:16;2.40;;;1.10;;
57327;SDS011;43162;51.040;18.244;2022-09-21T17:19:50;2.40;;;1.20;;
57327;SDS011;43162;51.040;18.244;2022-09-21T17:22:18;4.40;;;1.70;;
57327;SDS011;43162;51.040;18.244;2022-09-21T17:24:45;9.10;;;4.40;;
57327;SDS011;43162;51.040;18.244;2022-09-21T17:27:12;15.10;;;11.20;;
57327;SDS011;43162;51.040;18.244;2022-09-21T17:29:41;7.90;;;5.00;;
57327;SDS011;43162;51.040;18.244;2022-09-21T17:32:13;9.60;;;5.50;;
57327;SDS011;43162;51.040;18.244;2022-09-21T17:34:40;6.50;;;3.50;;
57327;SDS011;43162;51.040;18.244;2022-09-21T17:37:06;6.30;;;3.80;;
57327;SDS011;43162;51.040;18.244;2022-09-21T17:39:34;8.40;;;4.10;;
57327;SDS011;43162;51.040;18.244;2022-09-21T17:42:01;8.60;;;5.00;;
57327;SDS011;43162;51.040;18.244;2022-09-21T17:44:41;10.10;;;4.10;;
57327;SDS011;43162;51.040;18.244;2022-09-21T17:47:28;8.20;;;5.40;;
57327;SDS011;43162;51.040;18.244;2022-09-21T17:49:59;7.70;;;4.60;;
57327;SDS011;43162;51.040;18.244;2022-09-21T17:52:34;8.30;;;5.00;;
57327;SDS011;43162;51.040;18.244;2022-09-21T17:55:19;8.00;;;5.00;;
57327;SDS011;43162;51.040;18.244;2022-09-21T18:00:34;6.70;;;4.30;;
57327;SDS011;43162;51.040;18.244;2022-09-21T18:03:17;9.70;;;6.10;;
57327;SDS011;43162;51.040;18.244;2022-09-21T18:05:49;9.20;;;6.20;;
57327;SDS011;43162;51.040;18.244;2022-09-21T18:08:17;10.10;;;6.20;;
57327;SDS011;43162;51.040;18.244;2022-09-21T18:10:48;9.60;;;6.50;;
57327;SDS011;43162;51.040;18.244;2022-09-21T18:13:26;12.90;;;10.30;;
57327;SDS011;43162;51.040;18.244;2022-09-21T18:21:38;6.00;;;2.90;;
57327;SDS011;43162;51.040;18.244;2022-09-21T18:32:05;7.40;;;4.40;;
57327;SDS011;43162;51.040;18.244;2022-09-21T18:38:11;6.20;;;3.80;;